• Join FlightAware (Why Join?)
  • Login
  • US Flag 
06:01AM EDT


 

Airport Tracker/Info


-or-


 

Live Flight TrackerFlight Track Log ✈ SKW5646 ✈ 01-May-2013 ✈ KSFO - KSBA

Flight Track Log - Related Links

Times and Time Zones

All times are in EDT time to prevent confusion due to time zone crossing. See the SKW5646 flight status page for this flight to view local times or setup timezone preferences in your user account.

Time Position Orientation Groundspeed Altitude Reporting Facility
EDT Latitude Longitude Course Direction KTS MPH feet Rate Location/Type
01:49PM 37.6333 -122.3667 208° Southwest 140 161 1,000  Level Northern Cal TRACON
01:50PM 37.6833 -122.3667 360° North 182 209 2,500 1,380 Climbing Northern Cal TRACON
01:51PM 37.7000 -122.4333 288° West 203 234 3,800 1,320 Climbing Northern Cal TRACON
01:52PM 37.5037 -122.4481 202° Southwest  Level FlightAware Approximate
01:52PM 37.7000 -122.5000 270° West 222 255 5,200  Level Northern Cal TRACON
01:53PM 37.4232 -122.4833 180° South  Level FlightAware Approximate
01:53PM 37.6333 -122.5167 191° South 230 265 6,300  Level Northern Cal TRACON
01:54PM 37.3415 -122.5223 208° Southwest  Level FlightAware Approximate
01:54PM 37.5833 -122.5167 180° South 226 260 7,900  Level Northern Cal TRACON
01:55PM 37.5167 -122.5333 191° South 220 253 9,400 1,260 Climbing Northern Cal TRACON
01:56PM 37.4500 -122.5500 191° South 230 265 10,500 1,200 Climbing Northern Cal TRACON
01:57PM 37.3833 -122.5333 169° South 232 267 11,800 1,080 Climbing Northern Cal TRACON
01:57PM 37.3831 -122.5400 267° West 240 276 11,900 1,080 Climbing Oakland Center
01:58PM 37.3100 -122.5144 164° South 232 267 13,200 1,080 Climbing Oakland Center
01:59PM 37.2486 -122.4942 165° South 230 265 14,200 960 Climbing Oakland Center
02:00PM 37.1878 -122.4733 165° South 227 261 15,200 960 Climbing Oakland Center
02:01PM 37.1247 -122.4547 167° South 233 268 16,200 900 Climbing Oakland Center
02:02PM 37.0656 -122.4211 156° South 243 280 17,100 780 Climbing Oakland Center
02:03PM 37.0147 -122.3783 146° Southeast 226 260 17,900 780 Climbing Oakland Center
02:04PM 36.9592 -122.3394 151° Southeast 230 265 18,700 780 Climbing Oakland Center
02:05PM 36.9036 -122.2969 149° Southeast 234 269 19,500 780 Climbing Oakland Center
02:06PM 36.8378 -122.2464 148° Southeast 233 268 20,300 540 Climbing Oakland Center
02:07PM 36.7786 -122.2039 150° Southeast 245 282 20,700 420 Climbing Oakland Center
02:08PM 36.7189 -122.1589 149° Southeast 252 290 21,200 480 Climbing Oakland Center
02:09PM 36.6564 -122.1178 152° Southeast 254 292 21,800 480 Climbing Oakland Center
02:10PM 36.5975 -122.0717 148° Southeast 251 289 22,300 480 Climbing Oakland Center
02:11PM 36.5375 -122.0272 149° Southeast 252 290 22,900 300 Climbing Oakland Center
02:12PM 36.4761 -121.9831 150° Southeast 256 295 23,000  Climbing Oakland Center
02:13PM 36.4108 -121.9339 149° Southeast 272 313 23,000  Level Oakland Center
02:14PM 36.3311 -121.8717 148° Southeast 283 326 23,000  Level Oakland Center
02:15PM 36.2611 -121.8219 150° Southeast 289 333 23,000  Level Oakland Center
02:16PM 36.1983 -121.7742 148° Southeast 282 325 23,000  Level Oakland Center
02:17PM 36.1358 -121.7186 144° Southeast 277 319 23,000  Level Oakland Center
02:18PM 36.0806 -121.6522 136° Southeast 275 316 23,000  Level Oakland Center
02:19PM 36.0092 -121.5800 141° Southeast 275 316 23,000  Level Oakland Center
02:20PM 35.9508 -121.5208 141° Southeast 273 314 23,000  Level Oakland Center
02:21PM 35.8919 -121.4614 141° Southeast 272 313 23,000  Level Oakland Center
02:23PM 35.8342 -121.4006 140° Southeast 272 313 23,000  Level Oakland Center
02:24PM 35.7761 -121.3411 140° Southeast 272 313 23,000  Level Oakland Center
02:25PM 35.7181 -121.2825 141° Southeast 271 312 23,000  Level Oakland Center
02:26PM 35.6603 -121.2219 140° Southeast 272 313 23,000  Level Oakland Center
02:27PM 35.5892 -121.1511 141° Southeast 273 314 23,000  Level Oakland Center
02:28PM 35.5322 -121.0908 139° Southeast 271 312 23,000  Level Oakland Center
02:29PM 35.4744 -121.0328 141° Southeast 269 310 23,000  Level Oakland Center
02:30PM 35.4169 -120.9756 141° Southeast 269 310 23,000  Level Oakland Center
02:31PM 35.3600 -120.9178 140° Southeast 267 307 23,000  Level Oakland Center
02:31PM 35.3364 -120.8981 146° Southeast 267 307 23,000  Level Los Angeles Center
02:32PM 35.2689 -120.8250 139° Southeast 267 307 23,000  Level Los Angeles Center
02:33PM 35.2122 -120.7681 141° Southeast 265 305 23,000  Level Los Angeles Center
02:34PM 35.1547 -120.7106 141° Southeast 266 306 23,000  Level Los Angeles Center
02:35PM 35.0972 -120.6528 141° Southeast 267 307 23,000 -300 Level Los Angeles Center
02:36PM 35.0392 -120.5950 141° Southeast 268 308 22,400 -1,260 Descending Los Angeles Center
02:37PM 34.9733 -120.5319 142° Southeast 290 334 20,400 -2,400 Descending Los Angeles Center
02:38PM 34.8936 -120.4514 140° Southeast 308 354 17,600 -2,400 Descending Los Angeles Center
02:40PM 34.8283 -120.3864 141° Southeast 302 348 15,400 -1,980 Descending Los Angeles Center
02:41PM 34.7781 -120.3364 141° Southeast 292 336 13,600 -2,220 Descending Los Angeles Center
02:42PM 34.7133 -120.2728 141° Southeast 295 339 10,900 -2,280 Descending Los Angeles Center
02:43PM 34.6353 -120.1936 140° Southeast 283 326 9,000 -1,020 Descending Los Angeles Center
02:43PM 34.5831 -120.1422 141° Southeast 261 300 9,000 -660 Level Los Angeles Center
02:44PM 34.5353 -120.0819 134° Southeast 249 287 7,800 -1,200 Descending Los Angeles Center